createdAt,value
2023-02-17T00:04:37.760Z,38.1
2023-02-17T00:09:38.062Z,38
2023-02-17T00:14:38.363Z,37.9
2023-02-17T00:19:38.871Z,37.9
2023-02-17T00:24:39.154Z,37.8
2023-02-17T00:29:39.457Z,37.7
2023-02-17T00:34:39.701Z,37.7
2023-02-17T00:39:39.974Z,37.6
2023-02-17T00:44:40.298Z,37.6
2023-02-17T00:49:40.544Z,37.5
2023-02-17T00:54:40.777Z,37.4
2023-02-17T00:59:40.997Z,37.4
2023-02-17T01:04:41.320Z,37.4
2023-02-17T01:09:41.590Z,37.2
2023-02-17T01:14:42.082Z,37.2
2023-02-17T01:19:42.561Z,37.2
2023-02-17T01:24:42.825Z,37.1
2023-02-17T01:29:43.054Z,37.1
2023-02-17T01:34:43.293Z,37
2023-02-17T01:39:43.529Z,36.9
2023-02-17T01:44:43.833Z,36.9
2023-02-17T01:49:44.097Z,36.9
2023-02-17T01:54:44.365Z,36.8
2023-02-17T01:59:44.658Z,36.7
2023-02-17T02:04:44.959Z,36.7
2023-02-17T02:09:45.210Z,36.6
2023-02-17T02:14:45.476Z,36.6
2023-02-17T02:19:45.735Z,36.6
2023-02-17T02:24:46.028Z,36.5
2023-02-17T02:29:46.288Z,36.4
2023-02-17T02:34:46.562Z,36.4
2023-02-17T02:39:47.065Z,36.4
2023-02-17T02:44:47.335Z,36.3
2023-02-17T02:49:47.580Z,36.2
2023-02-17T02:54:47.859Z,36.2
2023-02-17T02:59:48.342Z,36.2
2023-02-17T03:04:48.837Z,36.1
2023-02-17T03:09:49.296Z,36.1
2023-02-17T03:14:49.506Z,36.1
2023-02-17T03:19:49.795Z,36
2023-02-17T03:24:50.071Z,36
2023-02-17T03:29:50.363Z,35.9
2023-02-17T03:34:50.863Z,35.9
2023-02-17T03:39:51.359Z,35.8
2023-02-17T03:44:51.631Z,35.8
2023-02-17T03:49:51.884Z,35.7
2023-02-17T03:54:52.147Z,35.7
2023-02-17T03:59:52.624Z,35.7
2023-02-17T04:04:53.115Z,35.6
2023-02-17T04:09:53.340Z,35.6
2023-02-17T04:14:53.563Z,35.6
2023-02-17T04:19:53.874Z,35.5
2023-02-17T04:24:54.391Z,35.5
2023-02-17T04:29:54.678Z,35.4
2023-02-17T04:34:54.905Z,35.4
2023-02-17T04:39:55.380Z,35.4
2023-02-17T04:44:55.611Z,35.3
2023-02-17T04:49:55.849Z,35.3
2023-02-17T04:54:56.055Z,35.2
2023-02-17T04:59:56.282Z,35.2
2023-02-17T05:04:56.771Z,35.2
2023-02-17T05:09:56.999Z,35.1
2023-02-17T05:14:57.217Z,35.1
2023-02-17T05:19:57.645Z,35.1
2023-02-17T05:24:57.922Z,35.1
2023-02-17T05:29:58.119Z,35
2023-02-17T05:34:58.572Z,35
2023-02-17T05:39:58.850Z,34.9
2023-02-17T05:44:59.077Z,34.9
2023-02-17T05:49:59.274Z,34.9
2023-02-17T05:54:59.467Z,34.8
2023-02-17T05:59:59.890Z,34.7
2023-02-17T06:05:00.219Z,34.7
2023-02-17T06:10:00.456Z,34.7
2023-02-17T06:15:02.665Z,34.7
2023-02-17T06:20:04.560Z,34.6
2023-02-17T06:25:04.826Z,34.6
2023-02-17T06:30:05.006Z,34.6
2023-02-17T06:35:05.207Z,34.6
2023-02-17T06:40:05.391Z,34.5
2023-02-17T06:45:05.631Z,34.5
2023-02-17T06:50:06.062Z,34.5
2023-02-17T06:55:06.247Z,34.4
2023-02-17T07:00:06.439Z,34.4
2023-02-17T07:05:06.670Z,34.4
2023-02-17T07:10:08.772Z,34.3
2023-02-17T07:15:11.984Z,34.3
2023-02-17T07:20:12.504Z,34.3
2023-02-17T07:25:14.380Z,34.2
2023-02-17T07:30:14.607Z,34.2
2023-02-17T07:35:14.816Z,34.2
2023-02-17T07:40:16.813Z,34.2
2023-02-17T07:45:18.660Z,34.1
2023-02-17T07:50:20.581Z,34.1
2023-02-17T07:55:22.417Z,34.1
2023-02-17T08:00:24.629Z,34
2023-02-17T08:05:24.819Z,34
2023-02-17T08:10:25.027Z,33.9
2023-02-17T08:15:25.446Z,33.9
2023-02-17T08:20:27.355Z,33.9
2023-02-17T08:25:29.450Z,33.8
2023-02-17T08:30:31.374Z,33.7
2023-02-17T08:35:33.255Z,33.7
2023-02-17T08:40:35.259Z,33.7
2023-02-17T08:45:37.086Z,33.7
2023-02-17T08:50:39.179Z,33.7
2023-02-17T08:55:49.135Z,33.6
2023-02-17T09:00:51.574Z,33.5
2023-02-17T09:05:53.827Z,33.5
2023-02-17T09:10:55.721Z,33.4
2023-02-17T09:15:57.649Z,33.4
2023-02-17T09:20:59.581Z,33.4
2023-02-17T09:26:01.666Z,33.4
2023-02-17T09:31:03.766Z,33.4
2023-02-17T09:36:06.196Z,33.3
2023-02-17T09:41:08.182Z,33.3
2023-02-17T09:46:10.424Z,33.2
2023-02-17T09:51:12.746Z,33.2
2023-02-17T09:56:14.606Z,33.2
2023-02-17T10:01:17.703Z,33
2023-02-17T10:06:20.150Z,32.7
2023-02-17T10:11:21.984Z,32.6
2023-02-17T10:16:23.919Z,32.6
2023-02-17T10:21:25.785Z,32.6
2023-02-17T10:26:27.600Z,32.6
2023-02-17T10:31:29.563Z,32.6
2023-02-17T10:36:31.733Z,32.5
2023-02-17T10:41:33.549Z,32.5
2023-02-17T10:46:35.336Z,32.5
2023-02-17T10:51:37.158Z,32.5
2023-02-17T10:56:38.950Z,32.4
2023-02-17T11:01:40.960Z,32.4
2023-02-17T11:06:43.045Z,32.4
2023-02-17T11:11:46.200Z,32.4
2023-02-17T11:16:48.017Z,32.4
2023-02-17T11:21:49.857Z,32.4
2023-02-17T11:26:51.711Z,32.3
2023-02-17T11:31:53.739Z,32.3
2023-02-17T11:36:55.592Z,32.2
2023-02-17T11:41:57.417Z,32.2
2023-02-17T11:46:59.182Z,32.2
2023-02-17T11:52:01.012Z,32.2
2023-02-17T11:57:02.832Z,32.2
2023-02-17T12:02:04.693Z,32.2
2023-02-17T12:07:06.584Z,32.2
2023-02-17T12:12:08.624Z,32.1
2023-02-17T12:17:10.671Z,32.1
2023-02-17T12:22:12.580Z,32.1
2023-02-17T12:27:14.372Z,32.1
2023-02-17T12:32:16.435Z,32.1
2023-02-17T12:37:18.264Z,32.1
2023-02-17T12:42:20.072Z,32
2023-02-17T12:47:21.934Z,32
2023-02-17T12:52:23.859Z,32
2023-02-17T12:57:25.638Z,31.9
2023-02-17T13:02:27.672Z,31.9
2023-02-17T13:07:29.853Z,31.9
2023-02-17T13:12:31.607Z,31.9
2023-02-17T13:17:33.382Z,31.9
2023-02-17T13:22:35.179Z,31.9
2023-02-17T13:27:36.977Z,31.9
2023-02-17T13:32:38.955Z,31.8
2023-02-17T13:37:40.757Z,31.8
2023-02-17T13:42:42.523Z,31.8
2023-02-17T13:47:44.259Z,31.8
2023-02-17T13:52:46.040Z,31.8
2023-02-17T13:57:47.904Z,31.8
2023-02-17T14:02:49.859Z,31.7
2023-02-17T14:07:51.647Z,31.6
2023-02-17T14:12:53.403Z,31.6
2023-02-17T14:17:55.197Z,31.6
2023-02-17T14:23:03.840Z,31.5
2023-02-17T14:28:05.894Z,31.5
2023-02-17T14:33:07.656Z,31.4
2023-02-17T14:38:09.679Z,31.4
2023-02-17T14:43:11.689Z,31.4
2023-02-17T14:48:13.729Z,31.4
2023-02-17T14:53:15.767Z,31.4
2023-02-17T14:58:17.511Z,31.4
2023-02-17T15:03:19.481Z,31.4
2023-02-17T15:08:21.455Z,31.4
2023-02-17T15:13:23.426Z,31.3
2023-02-17T15:18:27.718Z,31.3
2023-02-17T15:23:29.697Z,31.3
2023-02-17T15:28:31.720Z,30.5
2023-02-17T15:33:33.778Z,30.3
2023-02-17T15:38:35.812Z,30.3
2023-02-17T15:43:37.872Z,30.3
2023-02-17T15:48:39.664Z,30.3
2023-02-17T15:53:41.458Z,30.3
2023-02-17T15:58:43.215Z,30.3
2023-02-17T16:03:45.254Z,30.2
2023-02-17T16:08:47.093Z,30.2
2023-02-17T16:13:49.130Z,30.2
2023-02-17T16:18:51.954Z,30.2
2023-02-17T16:23:53.778Z,30.1
2023-02-17T16:28:55.544Z,30.1
2023-02-17T16:33:57.299Z,30.1
2023-02-17T16:38:59.372Z,30.1
2023-02-17T16:44:07.597Z,30.1
2023-02-17T16:49:09.485Z,30.1
2023-02-17T16:54:11.529Z,30.1
2023-02-17T16:59:13.707Z,30.1
2023-02-17T17:04:15.696Z,30.1
2023-02-17T17:09:17.697Z,30
2023-02-17T17:14:21.604Z,30
2023-02-17T17:19:23.609Z,30
2023-02-17T17:24:25.431Z,30
2023-02-17T17:29:27.234Z,30
2023-02-17T17:34:29.147Z,29.9
2023-02-17T17:39:30.957Z,29.9
2023-02-17T17:44:32.949Z,29.9
2023-02-17T17:49:34.675Z,29.9
2023-02-17T17:54:36.426Z,28.3
2023-02-17T17:59:38.163Z,31.1
2023-02-17T18:04:40.022Z,34
2023-02-17T18:09:40.651Z,36.6
2023-02-17T18:14:40.912Z,39.3
2023-02-17T18:19:41.333Z,40.8
2023-02-17T18:24:45.272Z,42.2
2023-02-17T18:29:45.704Z,42.4
2023-02-17T18:34:46.136Z,42.5
2023-02-17T18:39:46.806Z,42.4
2023-02-17T18:44:50.013Z,42.4
2023-02-17T18:49:50.706Z,42.4
2023-02-17T18:54:51.291Z,42.4
2023-02-17T18:59:51.718Z,42.3
2023-02-17T19:04:52.181Z,42.3
2023-02-17T19:09:52.860Z,42.2
2023-02-17T19:14:53.492Z,42.2
2023-02-17T19:19:53.923Z,41.6
2023-02-17T19:24:54.361Z,41.4
2023-02-17T19:29:54.753Z,41.4
2023-02-17T19:34:55.134Z,41.4
2023-02-17T19:39:55.808Z,41.3
2023-02-17T19:44:56.243Z,41.3
2023-02-17T19:49:56.609Z,41.2
2023-02-17T19:54:57.034Z,41.2
2023-02-17T19:59:57.432Z,41.2
2023-02-17T20:04:57.831Z,41.2
2023-02-17T20:09:58.215Z,41.2
2023-02-17T20:14:58.590Z,41.1
2023-02-17T20:19:59.424Z,41.1
2023-02-17T20:24:59.913Z,41.1
2023-02-17T20:30:00.833Z,41.1
2023-02-17T20:35:01.656Z,41
2023-02-17T20:40:02.736Z,40.9
2023-02-17T20:45:04.143Z,40.9
2023-02-17T20:50:04.660Z,40.9
2023-02-17T20:55:05.090Z,40.9
2023-02-17T21:00:05.563Z,40.9
2023-02-17T21:05:06.229Z,40.8
2023-02-17T21:10:06.876Z,40.8
2023-02-17T21:15:07.350Z,40.8
2023-02-17T21:20:08.020Z,40.8
2023-02-17T21:25:08.580Z,40.7
2023-02-17T21:30:09.332Z,40.7
2023-02-17T21:35:09.782Z,40.6
2023-02-17T21:40:10.429Z,40.6
2023-02-17T21:45:11.079Z,40.6
2023-02-17T21:50:11.516Z,40.5
2023-02-17T21:55:11.919Z,40.5
2023-02-17T22:00:12.664Z,40.2
2023-02-17T22:05:13.296Z,40.1
2023-02-17T22:10:13.666Z,40
2023-02-17T22:15:14.063Z,40
2023-02-17T22:20:14.479Z,40
2023-02-17T22:25:14.858Z,39.9
2023-02-17T22:30:15.250Z,39.9
2023-02-17T22:35:15.721Z,39.9
2023-02-17T22:40:16.119Z,39.8
2023-02-17T22:45:16.536Z,39.7
2023-02-17T22:50:16.922Z,39.7
2023-02-17T22:55:17.326Z,39.7
2023-02-17T23:00:17.741Z,39.6
2023-02-17T23:05:18.102Z,39.6
2023-02-17T23:10:18.457Z,39.6
2023-02-17T23:15:18.848Z,39.5
2023-02-17T23:20:19.189Z,39.5
2023-02-17T23:25:19.573Z,39.4
2023-02-17T23:30:19.988Z,39.4
2023-02-17T23:35:20.407Z,39.4
2023-02-17T23:40:20.752Z,39.3
2023-02-17T23:45:21.089Z,39.2
2023-02-17T23:50:21.499Z,39.2
2023-02-17T23:55:21.882Z,39.2
